sensor_id;sensor_type;location;lat;lon;timestamp;P1;durP1;ratioP1;P2;durP2;ratioP2
34581;SDS011;20814;49.364;8.804;2023-02-14T00:01:42;15.95;;;6.72;;
34581;SDS011;20814;49.364;8.804;2023-02-14T00:04:07;21.08;;;7.20;;
34581;SDS011;20814;49.364;8.804;2023-02-14T00:06:33;17.40;;;6.63;;
34581;SDS011;20814;49.364;8.804;2023-02-14T00:09:02;24.48;;;7.50;;
34581;SDS011;20814;49.364;8.804;2023-02-14T00:11:28;16.15;;;6.47;;
34581;SDS011;20814;49.364;8.804;2023-02-14T00:13:53;17.35;;;7.38;;
34581;SDS011;20814;49.364;8.804;2023-02-14T00:16:37;20.13;;;6.75;;
34581;SDS011;20814;49.364;8.804;2023-02-14T00:19:02;19.83;;;6.90;;
34581;SDS011;20814;49.364;8.804;2023-02-14T00:21:28;19.45;;;7.75;;
34581;SDS011;20814;49.364;8.804;2023-02-14T00:23:53;21.65;;;8.27;;
34581;SDS011;20814;49.364;8.804;2023-02-14T00:26:18;24.42;;;8.90;;
34581;SDS011;20814;49.364;8.804;2023-02-14T00:28:43;23.50;;;6.93;;
34581;SDS011;20814;49.364;8.804;2023-02-14T00:31:09;24.27;;;8.25;;
34581;SDS011;20814;49.364;8.804;2023-02-14T00:33:34;20.05;;;6.90;;
34581;SDS011;20814;49.364;8.804;2023-02-14T00:36:01;25.25;;;8.18;;
34581;SDS011;20814;49.364;8.804;2023-02-14T00:38:26;18.45;;;7.13;;
34581;SDS011;20814;49.364;8.804;2023-02-14T00:41:10;19.73;;;7.53;;
34581;SDS011;20814;49.364;8.804;2023-02-14T00:43:43;17.67;;;6.72;;
34581;SDS011;20814;49.364;8.804;2023-02-14T00:46:08;17.08;;;6.55;;
34581;SDS011;20814;49.364;8.804;2023-02-14T00:48:33;15.87;;;6.33;;
34581;SDS011;20814;49.364;8.804;2023-02-14T00:50:58;17.65;;;6.93;;
34581;SDS011;20814;49.364;8.804;2023-02-14T00:53:23;17.10;;;7.17;;
34581;SDS011;20814;49.364;8.804;2023-02-14T00:55:49;17.52;;;6.90;;
34581;SDS011;20814;49.364;8.804;2023-02-14T00:58:14;15.40;;;6.38;;
34581;SDS011;20814;49.364;8.804;2023-02-14T01:00:39;19.60;;;7.57;;
34581;SDS011;20814;49.364;8.804;2023-02-14T01:03:05;22.83;;;8.15;;
34581;SDS011;20814;49.364;8.804;2023-02-14T01:05:30;17.52;;;6.90;;
34581;SDS011;20814;49.364;8.804;2023-02-14T01:07:55;18.52;;;7.57;;
34581;SDS011;20814;49.364;8.804;2023-02-14T01:10:21;22.15;;;7.63;;
34581;SDS011;20814;49.364;8.804;2023-02-14T01:12:46;14.80;;;6.57;;
34581;SDS011;20814;49.364;8.804;2023-02-14T01:15:11;14.48;;;6.18;;
34581;SDS011;20814;49.364;8.804;2023-02-14T01:17:37;16.47;;;6.03;;
34581;SDS011;20814;49.364;8.804;2023-02-14T01:20:03;25.98;;;7.13;;
34581;SDS011;20814;49.364;8.804;2023-02-14T01:22:28;14.50;;;6.68;;
34581;SDS011;20814;49.364;8.804;2023-02-14T01:24:53;16.90;;;6.65;;
34581;SDS011;20814;49.364;8.804;2023-02-14T01:27:19;22.03;;;7.90;;
34581;SDS011;20814;49.364;8.804;2023-02-14T01:29:44;15.07;;;6.23;;
34581;SDS011;20814;49.364;8.804;2023-02-14T01:32:09;17.98;;;7.60;;
34581;SDS011;20814;49.364;8.804;2023-02-14T01:34:34;16.27;;;6.72;;
34581;SDS011;20814;49.364;8.804;2023-02-14T01:36:59;20.98;;;7.60;;
34581;SDS011;20814;49.364;8.804;2023-02-14T01:39:24;18.00;;;6.47;;
34581;SDS011;20814;49.364;8.804;2023-02-14T01:41:50;18.35;;;6.95;;
34581;SDS011;20814;49.364;8.804;2023-02-14T01:46:45;16.52;;;6.32;;
34581;SDS011;20814;49.364;8.804;2023-02-14T01:49:15;20.75;;;7.82;;
34581;SDS011;20814;49.364;8.804;2023-02-14T01:51:48;15.25;;;6.18;;
34581;SDS011;20814;49.364;8.804;2023-02-14T01:54:14;15.50;;;7.25;;
34581;SDS011;20814;49.364;8.804;2023-02-14T01:56:42;18.08;;;7.05;;
34581;SDS011;20814;49.364;8.804;2023-02-14T01:59:09;13.77;;;5.38;;
34581;SDS011;20814;49.364;8.804;2023-02-14T02:01:35;19.17;;;6.72;;
34581;SDS011;20814;49.364;8.804;2023-02-14T02:04:02;18.85;;;6.15;;
34581;SDS011;20814;49.364;8.804;2023-02-14T02:06:43;11.93;;;5.95;;
34581;SDS011;20814;49.364;8.804;2023-02-14T02:11:37;19.83;;;7.00;;
34581;SDS011;20814;49.364;8.804;2023-02-14T02:14:02;18.15;;;6.60;;
34581;SDS011;20814;49.364;8.804;2023-02-14T02:22:03;18.27;;;6.75;;
34581;SDS011;20814;49.364;8.804;2023-02-14T02:32:40;18.15;;;7.05;;
34581;SDS011;20814;49.364;8.804;2023-02-14T02:38:00;20.35;;;7.05;;
34581;SDS011;20814;49.364;8.804;2023-02-14T02:49:04;17.05;;;7.07;;
34581;SDS011;20814;49.364;8.804;2023-02-14T02:51:40;18.25;;;8.35;;
34581;SDS011;20814;49.364;8.804;2023-02-14T02:54:28;18.88;;;7.30;;
34581;SDS011;20814;49.364;8.804;2023-02-14T02:56:57;15.30;;;6.28;;
34581;SDS011;20814;49.364;8.804;2023-02-14T03:04:29;25.02;;;8.35;;
34581;SDS011;20814;49.364;8.804;2023-02-14T03:07:14;17.35;;;6.78;;
34581;SDS011;20814;49.364;8.804;2023-02-14T03:09:59;19.17;;;7.25;;
34581;SDS011;20814;49.364;8.804;2023-02-14T03:17:40;13.95;;;6.38;;
34581;SDS011;20814;49.364;8.804;2023-02-14T03:20:13;16.73;;;6.95;;
34581;SDS011;20814;49.364;8.804;2023-02-14T03:23:26;19.75;;;7.38;;
34581;SDS011;20814;49.364;8.804;2023-02-14T03:25:38;21.30;;;7.68;;
34581;SDS011;20814;49.364;8.804;2023-02-14T03:28:10;18.02;;;6.57;;
34581;SDS011;20814;49.364;8.804;2023-02-14T03:30:45;22.10;;;7.50;;
34581;SDS011;20814;49.364;8.804;2023-02-14T03:33:13;20.80;;;7.85;;
34581;SDS011;20814;49.364;8.804;2023-02-14T03:35:53;22.90;;;8.05;;
34581;SDS011;20814;49.364;8.804;2023-02-14T03:38:24;19.60;;;7.53;;
34581;SDS011;20814;49.364;8.804;2023-02-14T03:40:52;15.63;;;6.85;;
34581;SDS011;20814;49.364;8.804;2023-02-14T03:43:32;18.95;;;7.72;;
34581;SDS011;20814;49.364;8.804;2023-02-14T03:46:05;15.60;;;6.82;;
34581;SDS011;20814;49.364;8.804;2023-02-14T03:48:32;19.80;;;8.10;;
34581;SDS011;20814;49.364;8.804;2023-02-14T03:50:59;19.17;;;7.88;;
34581;SDS011;20814;49.364;8.804;2023-02-14T03:53:26;19.98;;;7.88;;
34581;SDS011;20814;49.364;8.804;2023-02-14T03:58:18;19.65;;;7.43;;
34581;SDS011;20814;49.364;8.804;2023-02-14T04:00:44;19.20;;;7.30;;
34581;SDS011;20814;49.364;8.804;2023-02-14T04:03:11;21.92;;;8.35;;
34581;SDS011;20814;49.364;8.804;2023-02-14T04:05:38;20.58;;;8.23;;
34581;SDS011;20814;49.364;8.804;2023-02-14T04:08:07;24.15;;;8.65;;
34581;SDS011;20814;49.364;8.804;2023-02-14T04:10:32;20.27;;;7.40;;
34581;SDS011;20814;49.364;8.804;2023-02-14T04:12:57;22.92;;;7.53;;
34581;SDS011;20814;49.364;8.804;2023-02-14T04:15:23;22.13;;;7.85;;
34581;SDS011;20814;49.364;8.804;2023-02-14T04:17:48;17.08;;;6.78;;
34581;SDS011;20814;49.364;8.804;2023-02-14T04:20:32;22.48;;;7.78;;
34581;SDS011;20814;49.364;8.804;2023-02-14T04:22:58;21.55;;;7.40;;
34581;SDS011;20814;49.364;8.804;2023-02-14T04:25:23;18.38;;;7.25;;
34581;SDS011;20814;49.364;8.804;2023-02-14T04:27:48;15.43;;;6.30;;
34581;SDS011;20814;49.364;8.804;2023-02-14T04:30:14;18.08;;;7.47;;
34581;SDS011;20814;49.364;8.804;2023-02-14T04:32:41;20.90;;;7.90;;
34581;SDS011;20814;49.364;8.804;2023-02-14T04:35:06;18.92;;;6.85;;
34581;SDS011;20814;49.364;8.804;2023-02-14T04:37:32;24.13;;;7.30;;
34581;SDS011;20814;49.364;8.804;2023-02-14T04:39:57;18.90;;;7.55;;
34581;SDS011;20814;49.364;8.804;2023-02-14T04:42:22;18.40;;;7.57;;
34581;SDS011;20814;49.364;8.804;2023-02-14T04:44:47;19.33;;;7.55;;
34581;SDS011;20814;49.364;8.804;2023-02-14T04:47:12;22.33;;;7.70;;
34581;SDS011;20814;49.364;8.804;2023-02-14T04:49:38;20.92;;;7.65;;
34581;SDS011;20814;49.364;8.804;2023-02-14T04:52:03;21.05;;;8.10;;
34581;SDS011;20814;49.364;8.804;2023-02-14T04:54:29;20.33;;;7.72;;
34581;SDS011;20814;49.364;8.804;2023-02-14T04:56:54;22.52;;;7.47;;
34581;SDS011;20814;49.364;8.804;2023-02-14T04:59:19;19.50;;;7.37;;
34581;SDS011;20814;49.364;8.804;2023-02-14T05:01:45;19.33;;;7.68;;
34581;SDS011;20814;49.364;8.804;2023-02-14T05:04:10;22.73;;;7.50;;
34581;SDS011;20814;49.364;8.804;2023-02-14T05:06:35;19.50;;;7.60;;
34581;SDS011;20814;49.364;8.804;2023-02-14T05:09:00;23.48;;;8.18;;
34581;SDS011;20814;49.364;8.804;2023-02-14T05:11:26;22.55;;;8.05;;
34581;SDS011;20814;49.364;8.804;2023-02-14T05:13:52;22.00;;;8.38;;
34581;SDS011;20814;49.364;8.804;2023-02-14T05:16:17;21.92;;;7.82;;
34581;SDS011;20814;49.364;8.804;2023-02-14T05:18:42;21.50;;;8.33;;
34581;SDS011;20814;49.364;8.804;2023-02-14T05:21:07;19.42;;;6.72;;
34581;SDS011;20814;49.364;8.804;2023-02-14T05:23:33;20.63;;;8.30;;
34581;SDS011;20814;49.364;8.804;2023-02-14T05:25:58;20.30;;;7.13;;
34581;SDS011;20814;49.364;8.804;2023-02-14T05:28:23;20.65;;;7.45;;
34581;SDS011;20814;49.364;8.804;2023-02-14T05:30:49;19.95;;;7.32;;
34581;SDS011;20814;49.364;8.804;2023-02-14T05:33:14;16.90;;;6.97;;
34581;SDS011;20814;49.364;8.804;2023-02-14T05:35:39;22.60;;;7.90;;
34581;SDS011;20814;49.364;8.804;2023-02-14T05:38:04;22.60;;;7.72;;
34581;SDS011;20814;49.364;8.804;2023-02-14T05:40:29;18.52;;;6.47;;
34581;SDS011;20814;49.364;8.804;2023-02-14T05:42:55;18.67;;;7.50;;
34581;SDS011;20814;49.364;8.804;2023-02-14T05:45:21;18.17;;;7.20;;
34581;SDS011;20814;49.364;8.804;2023-02-14T05:47:46;21.88;;;7.22;;
34581;SDS011;20814;49.364;8.804;2023-02-14T05:50:13;17.55;;;6.72;;
34581;SDS011;20814;49.364;8.804;2023-02-14T05:52:40;16.17;;;6.60;;
34581;SDS011;20814;49.364;8.804;2023-02-14T05:55:05;18.00;;;6.27;;
34581;SDS011;20814;49.364;8.804;2023-02-14T05:57:30;18.40;;;7.57;;
34581;SDS011;20814;49.364;8.804;2023-02-14T05:59:55;20.05;;;7.53;;
34581;SDS011;20814;49.364;8.804;2023-02-14T06:02:20;20.97;;;6.33;;
34581;SDS011;20814;49.364;8.804;2023-02-14T06:04:46;18.52;;;6.90;;
34581;SDS011;20814;49.364;8.804;2023-02-14T06:07:11;16.60;;;6.60;;
34581;SDS011;20814;49.364;8.804;2023-02-14T06:09:36;24.50;;;8.05;;
34581;SDS011;20814;49.364;8.804;2023-02-14T06:12:01;20.10;;;6.55;;
34581;SDS011;20814;49.364;8.804;2023-02-14T06:14:26;18.55;;;7.32;;
34581;SDS011;20814;49.364;8.804;2023-02-14T06:16:52;18.65;;;7.38;;
34581;SDS011;20814;49.364;8.804;2023-02-14T06:19:17;21.13;;;7.07;;
34581;SDS011;20814;49.364;8.804;2023-02-14T06:21:42;19.77;;;7.55;;
34581;SDS011;20814;49.364;8.804;2023-02-14T06:24:07;24.58;;;7.80;;
34581;SDS011;20814;49.364;8.804;2023-02-14T06:26:33;19.13;;;7.90;;
34581;SDS011;20814;49.364;8.804;2023-02-14T06:28:59;21.40;;;8.18;;
34581;SDS011;20814;49.364;8.804;2023-02-14T06:31:25;19.52;;;7.80;;
34581;SDS011;20814;49.364;8.804;2023-02-14T06:33:50;19.33;;;7.15;;
34581;SDS011;20814;49.364;8.804;2023-02-14T06:36:15;26.08;;;7.68;;
34581;SDS011;20814;49.364;8.804;2023-02-14T06:38:41;25.05;;;7.90;;
34581;SDS011;20814;49.364;8.804;2023-02-14T06:41:06;23.90;;;8.07;;
34581;SDS011;20814;49.364;8.804;2023-02-14T06:43:32;22.48;;;6.65;;
34581;SDS011;20814;49.364;8.804;2023-02-14T06:45:58;26.95;;;8.65;;
34581;SDS011;20814;49.364;8.804;2023-02-14T06:48:23;22.10;;;8.15;;
34581;SDS011;20814;49.364;8.804;2023-02-14T06:50:48;21.17;;;7.75;;
34581;SDS011;20814;49.364;8.804;2023-02-14T06:53:13;26.40;;;8.52;;
34581;SDS011;20814;49.364;8.804;2023-02-14T06:55:39;22.48;;;7.88;;
34581;SDS011;20814;49.364;8.804;2023-02-14T06:58:04;20.70;;;7.60;;
34581;SDS011;20814;49.364;8.804;2023-02-14T07:00:29;23.48;;;8.07;;
34581;SDS011;20814;49.364;8.804;2023-02-14T07:02:55;24.23;;;7.65;;
34581;SDS011;20814;49.364;8.804;2023-02-14T07:05:20;19.23;;;7.40;;
34581;SDS011;20814;49.364;8.804;2023-02-14T07:07:46;22.65;;;7.70;;
34581;SDS011;20814;49.364;8.804;2023-02-14T07:10:11;27.30;;;9.88;;
34581;SDS011;20814;49.364;8.804;2023-02-14T07:12:36;24.58;;;7.80;;
34581;SDS011;20814;49.364;8.804;2023-02-14T07:15:03;20.48;;;8.30;;
34581;SDS011;20814;49.364;8.804;2023-02-14T07:17:29;22.67;;;8.68;;
34581;SDS011;20814;49.364;8.804;2023-02-14T07:19:54;26.25;;;9.05;;
34581;SDS011;20814;49.364;8.804;2023-02-14T07:22:19;23.88;;;8.60;;
34581;SDS011;20814;49.364;8.804;2023-02-14T07:24:45;25.83;;;8.93;;
34581;SDS011;20814;49.364;8.804;2023-02-14T07:27:11;24.35;;;8.90;;
34581;SDS011;20814;49.364;8.804;2023-02-14T07:29:36;25.90;;;8.73;;
34581;SDS011;20814;49.364;8.804;2023-02-14T07:32:01;21.38;;;8.65;;
34581;SDS011;20814;49.364;8.804;2023-02-14T07:34:26;21.67;;;8.27;;
34581;SDS011;20814;49.364;8.804;2023-02-14T07:36:51;28.00;;;8.75;;
34581;SDS011;20814;49.364;8.804;2023-02-14T07:39:16;24.53;;;9.57;;
34581;SDS011;20814;49.364;8.804;2023-02-14T07:41:42;22.97;;;7.70;;
34581;SDS011;20814;49.364;8.804;2023-02-14T07:44:07;23.17;;;7.40;;
34581;SDS011;20814;49.364;8.804;2023-02-14T07:46:32;23.17;;;8.32;;
34581;SDS011;20814;49.364;8.804;2023-02-14T07:48:57;22.00;;;8.55;;
34581;SDS011;20814;49.364;8.804;2023-02-14T07:51:22;22.92;;;8.20;;
34581;SDS011;20814;49.364;8.804;2023-02-14T07:53:47;25.93;;;9.10;;
34581;SDS011;20814;49.364;8.804;2023-02-14T07:56:13;28.45;;;8.63;;
34581;SDS011;20814;49.364;8.804;2023-02-14T07:58:38;21.42;;;8.38;;
34581;SDS011;20814;49.364;8.804;2023-02-14T08:01:03;29.63;;;8.57;;
34581;SDS011;20814;49.364;8.804;2023-02-14T08:03:28;28.00;;;9.38;;
34581;SDS011;20814;49.364;8.804;2023-02-14T08:05:53;26.07;;;8.90;;
34581;SDS011;20814;49.364;8.804;2023-02-14T08:08:23;20.95;;;9.15;;
34581;SDS011;20814;49.364;8.804;2023-02-14T08:10:48;26.10;;;10.30;;
34581;SDS011;20814;49.364;8.804;2023-02-14T08:13:13;25.93;;;9.17;;
34581;SDS011;20814;49.364;8.804;2023-02-14T08:15:38;26.35;;;9.77;;
34581;SDS011;20814;49.364;8.804;2023-02-14T08:18:22;26.88;;;8.02;;
34581;SDS011;20814;49.364;8.804;2023-02-14T08:20:48;23.02;;;8.75;;
34581;SDS011;20814;49.364;8.804;2023-02-14T08:23:15;24.38;;;8.65;;
34581;SDS011;20814;49.364;8.804;2023-02-14T08:25:40;27.45;;;8.82;;
34581;SDS011;20814;49.364;8.804;2023-02-14T08:28:05;25.27;;;8.85;;
34581;SDS011;20814;49.364;8.804;2023-02-14T08:30:31;25.83;;;9.00;;
34581;SDS011;20814;49.364;8.804;2023-02-14T08:32:56;19.40;;;7.83;;
34581;SDS011;20814;49.364;8.804;2023-02-14T08:35:21;24.98;;;8.70;;
34581;SDS011;20814;49.364;8.804;2023-02-14T08:37:46;32.17;;;9.15;;
34581;SDS011;20814;49.364;8.804;2023-02-14T08:40:13;22.20;;;8.52;;
34581;SDS011;20814;49.364;8.804;2023-02-14T08:42:38;22.02;;;8.60;;
34581;SDS011;20814;49.364;8.804;2023-02-14T08:45:03;27.67;;;9.57;;
34581;SDS011;20814;49.364;8.804;2023-02-14T08:47:30;27.63;;;9.57;;
34581;SDS011;20814;49.364;8.804;2023-02-14T08:49:59;21.50;;;8.77;;
34581;SDS011;20814;49.364;8.804;2023-02-14T08:52:24;22.52;;;8.82;;
34581;SDS011;20814;49.364;8.804;2023-02-14T08:54:50;24.95;;;8.38;;
34581;SDS011;20814;49.364;8.804;2023-02-14T08:57:15;23.65;;;8.68;;
34581;SDS011;20814;49.364;8.804;2023-02-14T08:59:40;20.63;;;8.00;;
34581;SDS011;20814;49.364;8.804;2023-02-14T09:02:05;29.90;;;9.23;;
34581;SDS011;20814;49.364;8.804;2023-02-14T09:04:33;88.75;;;14.45;;
34581;SDS011;20814;49.364;8.804;2023-02-14T09:06:58;26.40;;;9.68;;
34581;SDS011;20814;49.364;8.804;2023-02-14T09:09:23;25.93;;;9.80;;
34581;SDS011;20814;49.364;8.804;2023-02-14T09:11:48;21.17;;;8.38;;
34581;SDS011;20814;49.364;8.804;2023-02-14T09:14:13;23.83;;;9.13;;
34581;SDS011;20814;49.364;8.804;2023-02-14T09:16:39;26.58;;;9.25;;
34581;SDS011;20814;49.364;8.804;2023-02-14T09:19:04;24.30;;;9.03;;
34581;SDS011;20814;49.364;8.804;2023-02-14T09:21:30;23.83;;;8.98;;
34581;SDS011;20814;49.364;8.804;2023-02-14T09:23:55;25.75;;;9.50;;
34581;SDS011;20814;49.364;8.804;2023-02-14T09:26:20;26.65;;;9.52;;
34581;SDS011;20814;49.364;8.804;2023-02-14T09:28:46;21.40;;;8.13;;
34581;SDS011;20814;49.364;8.804;2023-02-14T09:31:12;26.70;;;9.07;;
34581;SDS011;20814;49.364;8.804;2023-02-14T09:33:38;24.95;;;8.98;;
34581;SDS011;20814;49.364;8.804;2023-02-14T09:36:22;21.88;;;8.13;;
34581;SDS011;20814;49.364;8.804;2023-02-14T09:39:06;22.85;;;8.15;;
34581;SDS011;20814;49.364;8.804;2023-02-14T09:41:36;23.47;;;8.57;;
34581;SDS011;20814;49.364;8.804;2023-02-14T09:44:22;22.92;;;8.88;;
34581;SDS011;20814;49.364;8.804;2023-02-14T09:46:51;19.92;;;7.63;;
34581;SDS011;20814;49.364;8.804;2023-02-14T09:49:18;25.63;;;9.57;;
34581;SDS011;20814;49.364;8.804;2023-02-14T09:51:46;38.65;;;10.98;;
34581;SDS011;20814;49.364;8.804;2023-02-14T09:54:13;30.02;;;10.90;;
34581;SDS011;20814;49.364;8.804;2023-02-14T09:56:47;24.65;;;9.40;;
34581;SDS011;20814;49.364;8.804;2023-02-14T09:59:16;27.00;;;12.07;;
34581;SDS011;20814;49.364;8.804;2023-02-14T10:01:50;26.50;;;9.73;;
34581;SDS011;20814;49.364;8.804;2023-02-14T10:06:55;35.38;;;11.65;;
34581;SDS011;20814;49.364;8.804;2023-02-14T10:09:28;25.55;;;9.20;;
34581;SDS011;20814;49.364;8.804;2023-02-14T10:11:55;20.58;;;8.68;;
34581;SDS011;20814;49.364;8.804;2023-02-14T10:14:26;22.88;;;9.20;;
34581;SDS011;20814;49.364;8.804;2023-02-14T10:19:31;27.05;;;10.48;;
34581;SDS011;20814;49.364;8.804;2023-02-14T10:22:00;21.85;;;8.93;;
34581;SDS011;20814;49.364;8.804;2023-02-14T10:24:27;29.80;;;9.80;;
34581;SDS011;20814;49.364;8.804;2023-02-14T10:26:54;25.60;;;9.43;;
34581;SDS011;20814;49.364;8.804;2023-02-14T10:29:21;35.85;;;12.38;;
34581;SDS011;20814;49.364;8.804;2023-02-14T10:44:21;22.77;;;9.63;;
34581;SDS011;20814;49.364;8.804;2023-02-14T10:46:56;21.73;;;8.93;;
34581;SDS011;20814;49.364;8.804;2023-02-14T10:49:28;23.40;;;9.35;;
34581;SDS011;20814;49.364;8.804;2023-02-14T10:54:21;24.50;;;9.50;;
34581;SDS011;20814;49.364;8.804;2023-02-14T10:59:32;24.30;;;8.85;;
34581;SDS011;20814;49.364;8.804;2023-02-14T11:01:59;28.27;;;9.73;;
34581;SDS011;20814;49.364;8.804;2023-02-14T11:04:24;26.00;;;10.60;;
34581;SDS011;20814;49.364;8.804;2023-02-14T11:06:50;24.88;;;9.00;;
34581;SDS011;20814;49.364;8.804;2023-02-14T11:09:16;22.95;;;8.88;;
34581;SDS011;20814;49.364;8.804;2023-02-14T11:11:58;24.27;;;9.63;;
34581;SDS011;20814;49.364;8.804;2023-02-14T11:14:25;24.92;;;9.52;;
34581;SDS011;20814;49.364;8.804;2023-02-14T11:16:51;24.10;;;9.73;;
34581;SDS011;20814;49.364;8.804;2023-02-14T11:19:19;25.60;;;9.85;;
34581;SDS011;20814;49.364;8.804;2023-02-14T11:21:44;27.75;;;9.75;;
34581;SDS011;20814;49.364;8.804;2023-02-14T11:26:46;23.98;;;9.52;;
34581;SDS011;20814;49.364;8.804;2023-02-14T11:29:12;25.92;;;10.20;;
34581;SDS011;20814;49.364;8.804;2023-02-14T11:31:38;29.85;;;10.00;;
34581;SDS011;20814;49.364;8.804;2023-02-14T11:34:06;29.70;;;10.65;;
34581;SDS011;20814;49.364;8.804;2023-02-14T11:36:42;25.88;;;9.93;;
34581;SDS011;20814;49.364;8.804;2023-02-14T11:41:49;27.92;;;10.52;;
34581;SDS011;20814;49.364;8.804;2023-02-14T11:44:16;28.25;;;11.13;;
34581;SDS011;20814;49.364;8.804;2023-02-14T11:46:46;24.40;;;10.32;;
34581;SDS011;20814;49.364;8.804;2023-02-14T11:49:28;23.27;;;10.48;;
34581;SDS011;20814;49.364;8.804;2023-02-14T11:51:55;25.48;;;9.95;;
34581;SDS011;20814;49.364;8.804;2023-02-14T11:54:27;27.50;;;11.05;;
34581;SDS011;20814;49.364;8.804;2023-02-14T11:56:53;27.73;;;10.18;;
34581;SDS011;20814;49.364;8.804;2023-02-14T11:59:24;25.85;;;10.50;;
34581;SDS011;20814;49.364;8.804;2023-02-14T12:01:50;24.00;;;10.45;;
34581;SDS011;20814;49.364;8.804;2023-02-14T12:04:17;24.50;;;9.80;;
34581;SDS011;20814;49.364;8.804;2023-02-14T12:06:43;24.13;;;9.95;;
34581;SDS011;20814;49.364;8.804;2023-02-14T12:09:23;29.17;;;10.90;;
34581;SDS011;20814;49.364;8.804;2023-02-14T12:12:05;28.00;;;9.82;;
34581;SDS011;20814;49.364;8.804;2023-02-14T12:14:38;23.13;;;9.43;;
34581;SDS011;20814;49.364;8.804;2023-02-14T12:17:06;22.37;;;10.30;;
34581;SDS011;20814;49.364;8.804;2023-02-14T12:22:12;25.35;;;10.77;;
34581;SDS011;20814;49.364;8.804;2023-02-14T12:24:46;22.63;;;10.10;;
34581;SDS011;20814;49.364;8.804;2023-02-14T12:29:51;26.63;;;10.02;;
34581;SDS011;20814;49.364;8.804;2023-02-14T12:32:25;45.40;;;16.13;;
34581;SDS011;20814;49.364;8.804;2023-02-14T12:34:59;29.30;;;13.45;;
34581;SDS011;20814;49.364;8.804;2023-02-14T12:42:44;28.90;;;10.55;;
34581;SDS011;20814;49.364;8.804;2023-02-14T12:47:51;26.20;;;11.07;;
34581;SDS011;20814;49.364;8.804;2023-02-14T12:55:26;26.45;;;10.50;;
34581;SDS011;20814;49.364;8.804;2023-02-14T12:58:04;28.95;;;11.23;;
34581;SDS011;20814;49.364;8.804;2023-02-14T13:05:25;30.55;;;10.80;;
34581;SDS011;20814;49.364;8.804;2023-02-14T13:08:16;26.15;;;10.15;;
34581;SDS011;20814;49.364;8.804;2023-02-14T13:10:50;27.45;;;10.80;;
34581;SDS011;20814;49.364;8.804;2023-02-14T13:16:27;24.45;;;9.98;;
34581;SDS011;20814;49.364;8.804;2023-02-14T13:18:56;27.52;;;10.88;;
34581;SDS011;20814;49.364;8.804;2023-02-14T13:21:24;26.00;;;10.93;;
34581;SDS011;20814;49.364;8.804;2023-02-14T13:23:51;23.80;;;10.43;;
34581;SDS011;20814;49.364;8.804;2023-02-14T13:26:27;26.95;;;10.93;;
34581;SDS011;20814;49.364;8.804;2023-02-14T13:28:57;28.15;;;11.38;;
34581;SDS011;20814;49.364;8.804;2023-02-14T13:31:25;26.42;;;11.02;;
34581;SDS011;20814;49.364;8.804;2023-02-14T13:33:51;26.33;;;11.02;;
34581;SDS011;20814;49.364;8.804;2023-02-14T13:36:19;28.23;;;11.45;;
34581;SDS011;20814;49.364;8.804;2023-02-14T13:38:46;25.75;;;10.38;;
34581;SDS011;20814;49.364;8.804;2023-02-14T13:41:13;28.67;;;12.10;;
34581;SDS011;20814;49.364;8.804;2023-02-14T13:46:14;22.23;;;9.60;;
34581;SDS011;20814;49.364;8.804;2023-02-14T13:48:40;25.63;;;10.30;;
34581;SDS011;20814;49.364;8.804;2023-02-14T13:51:08;23.63;;;10.85;;
34581;SDS011;20814;49.364;8.804;2023-02-14T13:53:35;26.80;;;10.32;;
34581;SDS011;20814;49.364;8.804;2023-02-14T13:56:46;25.67;;;10.65;;
34581;SDS011;20814;49.364;8.804;2023-02-14T13:58:47;25.00;;;10.90;;
34581;SDS011;20814;49.364;8.804;2023-02-14T14:03:58;26.33;;;11.02;;
34581;SDS011;20814;49.364;8.804;2023-02-14T14:06:24;24.75;;;11.05;;
34581;SDS011;20814;49.364;8.804;2023-02-14T14:08:50;27.83;;;11.65;;
34581;SDS011;20814;49.364;8.804;2023-02-14T14:14:03;25.90;;;10.52;;
34581;SDS011;20814;49.364;8.804;2023-02-14T14:16:57;28.27;;;10.95;;
34581;SDS011;20814;49.364;8.804;2023-02-14T14:22:04;19.67;;;9.93;;
34581;SDS011;20814;49.364;8.804;2023-02-14T14:24:35;25.90;;;10.02;;
34581;SDS011;20814;49.364;8.804;2023-02-14T14:29:36;24.50;;;10.07;;
34581;SDS011;20814;49.364;8.804;2023-02-14T14:32:09;23.98;;;10.80;;
34581;SDS011;20814;49.364;8.804;2023-02-14T14:34:34;23.40;;;10.27;;
34581;SDS011;20814;49.364;8.804;2023-02-14T14:37:04;24.95;;;11.43;;
34581;SDS011;20814;49.364;8.804;2023-02-14T14:39:31;24.85;;;10.10;;
34581;SDS011;20814;49.364;8.804;2023-02-14T14:42:06;24.70;;;10.95;;
34581;SDS011;20814;49.364;8.804;2023-02-14T14:44:33;26.85;;;11.77;;
34581;SDS011;20814;49.364;8.804;2023-02-14T14:46:58;28.67;;;10.80;;
34581;SDS011;20814;49.364;8.804;2023-02-14T14:49:24;25.10;;;11.23;;
34581;SDS011;20814;49.364;8.804;2023-02-14T14:51:49;25.25;;;11.40;;
34581;SDS011;20814;49.364;8.804;2023-02-14T14:54:15;27.40;;;10.95;;
34581;SDS011;20814;49.364;8.804;2023-02-14T14:56:49;23.20;;;9.52;;
34581;SDS011;20814;49.364;8.804;2023-02-14T14:59:18;28.77;;;10.27;;
34581;SDS011;20814;49.364;8.804;2023-02-14T15:01:50;23.00;;;10.73;;
34581;SDS011;20814;49.364;8.804;2023-02-14T15:04:17;23.83;;;9.73;;
34581;SDS011;20814;49.364;8.804;2023-02-14T15:06:43;22.85;;;9.55;;
34581;SDS011;20814;49.364;8.804;2023-02-14T15:09:21;23.40;;;10.68;;
34581;SDS011;20814;49.364;8.804;2023-02-14T15:11:48;23.13;;;9.77;;
34581;SDS011;20814;49.364;8.804;2023-02-14T15:14:36;22.95;;;10.02;;
34581;SDS011;20814;49.364;8.804;2023-02-14T15:17:04;27.67;;;10.88;;
34581;SDS011;20814;49.364;8.804;2023-02-14T15:19:31;21.88;;;10.60;;
34581;SDS011;20814;49.364;8.804;2023-02-14T15:22:03;21.60;;;10.02;;
34581;SDS011;20814;49.364;8.804;2023-02-14T15:24:28;25.73;;;10.13;;
34581;SDS011;20814;49.364;8.804;2023-02-14T15:26:55;23.58;;;10.15;;
34581;SDS011;20814;49.364;8.804;2023-02-14T15:29:25;22.73;;;9.70;;
34581;SDS011;20814;49.364;8.804;2023-02-14T15:31:51;25.73;;;9.82;;
34581;SDS011;20814;49.364;8.804;2023-02-14T15:34:18;25.88;;;10.27;;
34581;SDS011;20814;49.364;8.804;2023-02-14T15:36:44;21.83;;;9.82;;
34581;SDS011;20814;49.364;8.804;2023-02-14T15:39:13;19.98;;;8.70;;
34581;SDS011;20814;49.364;8.804;2023-02-14T15:41:43;23.40;;;9.23;;
34581;SDS011;20814;49.364;8.804;2023-02-14T15:44:16;24.73;;;9.65;;
34581;SDS011;20814;49.364;8.804;2023-02-14T15:46:42;23.27;;;9.07;;
34581;SDS011;20814;49.364;8.804;2023-02-14T15:49:08;21.88;;;9.55;;
34581;SDS011;20814;49.364;8.804;2023-02-14T15:51:34;24.05;;;9.25;;
34581;SDS011;20814;49.364;8.804;2023-02-14T15:54:06;21.27;;;9.05;;
34581;SDS011;20814;49.364;8.804;2023-02-14T15:56:33;20.80;;;8.57;;
34581;SDS011;20814;49.364;8.804;2023-02-14T15:59:03;25.70;;;9.32;;
34581;SDS011;20814;49.364;8.804;2023-02-14T16:01:29;19.35;;;9.20;;
34581;SDS011;20814;49.364;8.804;2023-02-14T16:03:56;22.33;;;8.98;;
34581;SDS011;20814;49.364;8.804;2023-02-14T16:06:29;24.90;;;10.32;;
34581;SDS011;20814;49.364;8.804;2023-02-14T16:08:55;22.90;;;8.85;;
34581;SDS011;20814;49.364;8.804;2023-02-14T16:11:31;25.23;;;9.45;;
34581;SDS011;20814;49.364;8.804;2023-02-14T16:13:56;24.42;;;9.38;;
34581;SDS011;20814;49.364;8.804;2023-02-14T16:16:22;24.23;;;8.48;;
34581;SDS011;20814;49.364;8.804;2023-02-14T16:18:51;21.25;;;8.88;;
34581;SDS011;20814;49.364;8.804;2023-02-14T16:21:18;23.27;;;9.63;;
34581;SDS011;20814;49.364;8.804;2023-02-14T16:24:08;19.55;;;8.95;;
34581;SDS011;20814;49.364;8.804;2023-02-14T16:26:35;17.67;;;8.30;;